Terminal Aerodrome Forecast
Issued by NWS Denver/Boulder, CO

Home | Current Version | Previous Version | Text Only | Print | Product List | Glossary On
Versions: 1 2 3 4 5 6 7 8 9 10 11 12 13 14 15 16 17 18 19 20 21 22 23 24 25 26 27 28 29 30 31 32 33 34 35 36 37 38 39 40 41 42 43 44 45
000
FTUS45 KBOU 221733
TAFDEN
TAF
KDEN 221733Z 2218/2324 08012KT P6SM FEW120
     FM222100 28014G21KT P6SM SCT120
     FM230000 28010KT P6SM SCT100 BKN150
     FM230200 14008KT P6SM SCT100 BKN120
     FM230400 17008KT P6SM SCT060 BKN090
     FM230800 29008KT P6SM SCT060 BKN090
     FM231600 34014KT P6SM VCSH SCT040 BKN060
     FM232100 35018G25KT 5SM -SHSN BKN040=

USA.gov is the U.S. government's official web portal to all federal, state and local government web resources and services.